sensor_id;sensor_type;location;lat;lon;timestamp;P1;durP1;ratioP1;P2;durP2;ratioP2
22679;SDS011;11507;44.858;10.374;2023-03-16T00:03:04;14.27;;;9.05;;
22679;SDS011;11507;44.858;10.374;2023-03-16T00:07:56;12.27;;;8.32;;
22679;SDS011;11507;44.858;10.374;2023-03-16T00:12:52;15.63;;;9.63;;
22679;SDS011;11507;44.858;10.374;2023-03-16T00:15:18;16.90;;;9.73;;
22679;SDS011;11507;44.858;10.374;2023-03-16T00:17:44;13.50;;;9.52;;
22679;SDS011;11507;44.858;10.374;2023-03-16T00:20:16;14.77;;;9.73;;
22679;SDS011;11507;44.858;10.374;2023-03-16T00:22:42;14.65;;;9.50;;
22679;SDS011;11507;44.858;10.374;2023-03-16T00:25:10;16.70;;;10.27;;
22679;SDS011;11507;44.858;10.374;2023-03-16T00:27:38;16.08;;;10.43;;
22679;SDS011;11507;44.858;10.374;2023-03-16T00:30:05;15.23;;;10.00;;
22679;SDS011;11507;44.858;10.374;2023-03-16T00:32:34;16.30;;;9.85;;
22679;SDS011;11507;44.858;10.374;2023-03-16T00:35:02;15.95;;;8.88;;
22679;SDS011;11507;44.858;10.374;2023-03-16T00:37:30;14.55;;;8.48;;
22679;SDS011;11507;44.858;10.374;2023-03-16T00:39:58;20.42;;;9.38;;
22679;SDS011;11507;44.858;10.374;2023-03-16T00:42:29;13.23;;;8.88;;
22679;SDS011;11507;44.858;10.374;2023-03-16T00:44:57;15.55;;;9.95;;
22679;SDS011;11507;44.858;10.374;2023-03-16T00:47:24;14.85;;;7.93;;
22679;SDS011;11507;44.858;10.374;2023-03-16T00:49:52;12.13;;;8.13;;
22679;SDS011;11507;44.858;10.374;2023-03-16T00:52:18;13.15;;;8.25;;
22679;SDS011;11507;44.858;10.374;2023-03-16T00:57:15;14.75;;;9.65;;
22679;SDS011;11507;44.858;10.374;2023-03-16T00:59:44;14.32;;;9.25;;
22679;SDS011;11507;44.858;10.374;2023-03-16T01:02:10;16.98;;;11.18;;
22679;SDS011;11507;44.858;10.374;2023-03-16T01:04:37;18.33;;;12.18;;
22679;SDS011;11507;44.858;10.374;2023-03-16T01:07:06;18.05;;;11.20;;
22679;SDS011;11507;44.858;10.374;2023-03-16T01:09:35;16.50;;;11.30;;
22679;SDS011;11507;44.858;10.374;2023-03-16T01:12:03;16.17;;;9.98;;
22679;SDS011;11507;44.858;10.374;2023-03-16T01:14:33;17.60;;;10.50;;
22679;SDS011;11507;44.858;10.374;2023-03-16T01:17:02;19.08;;;10.57;;
22679;SDS011;11507;44.858;10.374;2023-03-16T01:19:30;17.95;;;11.35;;
22679;SDS011;11507;44.858;10.374;2023-03-16T01:21:58;19.92;;;12.43;;
22679;SDS011;11507;44.858;10.374;2023-03-16T01:24:24;16.25;;;11.43;;
22679;SDS011;11507;44.858;10.374;2023-03-16T01:29:17;23.73;;;14.30;;
22679;SDS011;11507;44.858;10.374;2023-03-16T01:31:42;23.65;;;15.25;;
22679;SDS011;11507;44.858;10.374;2023-03-16T01:36:42;41.55;;;22.67;;
22679;SDS011;11507;44.858;10.374;2023-03-16T01:39:09;30.98;;;18.85;;
22679;SDS011;11507;44.858;10.374;2023-03-16T01:41:41;39.75;;;24.25;;
22679;SDS011;11507;44.858;10.374;2023-03-16T01:44:13;21.50;;;13.73;;
22679;SDS011;11507;44.858;10.374;2023-03-16T01:46:42;17.77;;;12.25;;
22679;SDS011;11507;44.858;10.374;2023-03-16T01:54:32;22.77;;;13.82;;
22679;SDS011;11507;44.858;10.374;2023-03-16T01:57:09;15.65;;;10.50;;
22679;SDS011;11507;44.858;10.374;2023-03-16T02:02:24;30.60;;;17.15;;
22679;SDS011;11507;44.858;10.374;2023-03-16T02:04:59;28.58;;;17.48;;
22679;SDS011;11507;44.858;10.374;2023-03-16T02:07:29;24.88;;;14.30;;
22679;SDS011;11507;44.858;10.374;2023-03-16T02:10:00;18.60;;;12.70;;
22679;SDS011;11507;44.858;10.374;2023-03-16T02:12:28;24.10;;;15.30;;
22679;SDS011;11507;44.858;10.374;2023-03-16T02:14:56;21.00;;;14.05;;
22679;SDS011;11507;44.858;10.374;2023-03-16T02:22:40;20.35;;;13.80;;
22679;SDS011;11507;44.858;10.374;2023-03-16T02:25:12;17.88;;;10.63;;
22679;SDS011;11507;44.858;10.374;2023-03-16T02:30:20;25.30;;;14.18;;
22679;SDS011;11507;44.858;10.374;2023-03-16T02:33:05;21.73;;;14.55;;
22679;SDS011;11507;44.858;10.374;2023-03-16T02:35:31;18.52;;;12.90;;
22679;SDS011;11507;44.858;10.374;2023-03-16T02:37:59;25.83;;;15.95;;
22679;SDS011;11507;44.858;10.374;2023-03-16T02:40:31;22.02;;;13.35;;
22679;SDS011;11507;44.858;10.374;2023-03-16T02:43:04;22.10;;;14.40;;
22679;SDS011;11507;44.858;10.374;2023-03-16T02:45:42;22.75;;;14.52;;
22679;SDS011;11507;44.858;10.374;2023-03-16T02:48:21;22.90;;;14.65;;
22679;SDS011;11507;44.858;10.374;2023-03-16T02:50:52;20.83;;;13.73;;
22679;SDS011;11507;44.858;10.374;2023-03-16T02:53:18;22.33;;;14.20;;
22679;SDS011;11507;44.858;10.374;2023-03-16T02:55:46;20.95;;;13.30;;
22679;SDS011;11507;44.858;10.374;2023-03-16T03:00:39;20.10;;;13.75;;
22679;SDS011;11507;44.858;10.374;2023-03-16T03:03:06;21.25;;;13.52;;
22679;SDS011;11507;44.858;10.374;2023-03-16T03:05:38;19.65;;;12.60;;
22679;SDS011;11507;44.858;10.374;2023-03-16T03:08:05;22.63;;;13.02;;
22679;SDS011;11507;44.858;10.374;2023-03-16T03:10:33;19.40;;;13.25;;
22679;SDS011;11507;44.858;10.374;2023-03-16T03:13:02;20.85;;;12.65;;
22679;SDS011;11507;44.858;10.374;2023-03-16T03:15:28;15.68;;;10.77;;
22679;SDS011;11507;44.858;10.374;2023-03-16T03:18:03;16.35;;;9.98;;
22679;SDS011;11507;44.858;10.374;2023-03-16T03:20:30;15.85;;;10.30;;
22679;SDS011;11507;44.858;10.374;2023-03-16T03:25:21;14.77;;;9.38;;
22679;SDS011;11507;44.858;10.374;2023-03-16T03:27:49;15.65;;;9.20;;
22679;SDS011;11507;44.858;10.374;2023-03-16T03:30:20;14.57;;;9.35;;
22679;SDS011;11507;44.858;10.374;2023-03-16T03:32:48;14.75;;;9.55;;
22679;SDS011;11507;44.858;10.374;2023-03-16T03:35:18;14.57;;;9.38;;
22679;SDS011;11507;44.858;10.374;2023-03-16T03:37:45;15.90;;;9.20;;
22679;SDS011;11507;44.858;10.374;2023-03-16T03:40:14;15.52;;;9.45;;
22679;SDS011;11507;44.858;10.374;2023-03-16T03:42:45;13.65;;;8.48;;
22679;SDS011;11507;44.858;10.374;2023-03-16T03:45:12;12.98;;;8.30;;
22679;SDS011;11507;44.858;10.374;2023-03-16T03:47:39;16.88;;;8.90;;
22679;SDS011;11507;44.858;10.374;2023-03-16T03:50:08;13.57;;;8.93;;
22679;SDS011;11507;44.858;10.374;2023-03-16T03:52:45;12.98;;;8.45;;
22679;SDS011;11507;44.858;10.374;2023-03-16T03:57:37;13.00;;;8.57;;
22679;SDS011;11507;44.858;10.374;2023-03-16T04:00:05;16.20;;;8.25;;
22679;SDS011;11507;44.858;10.374;2023-03-16T04:02:40;15.40;;;8.30;;
22679;SDS011;11507;44.858;10.374;2023-03-16T04:05:13;12.77;;;6.97;;
22679;SDS011;11507;44.858;10.374;2023-03-16T04:10:09;9.93;;;5.72;;
22679;SDS011;11507;44.858;10.374;2023-03-16T04:12:38;11.02;;;6.07;;
22679;SDS011;11507;44.858;10.374;2023-03-16T04:15:07;10.60;;;6.38;;
22679;SDS011;11507;44.858;10.374;2023-03-16T04:17:43;8.38;;;5.57;;
22679;SDS011;11507;44.858;10.374;2023-03-16T04:20:10;8.25;;;5.65;;
22679;SDS011;11507;44.858;10.374;2023-03-16T04:22:45;10.63;;;6.45;;
22679;SDS011;11507;44.858;10.374;2023-03-16T04:25:13;10.18;;;6.03;;
22679;SDS011;11507;44.858;10.374;2023-03-16T04:27:42;10.52;;;6.05;;
22679;SDS011;11507;44.858;10.374;2023-03-16T04:30:09;8.50;;;5.95;;
22679;SDS011;11507;44.858;10.374;2023-03-16T04:32:42;10.02;;;5.78;;
22679;SDS011;11507;44.858;10.374;2023-03-16T04:35:09;7.57;;;4.75;;
22679;SDS011;11507;44.858;10.374;2023-03-16T04:37:44;13.05;;;4.82;;
22679;SDS011;11507;44.858;10.374;2023-03-16T04:40:10;6.25;;;4.35;;
22679;SDS011;11507;44.858;10.374;2023-03-16T04:42:40;8.00;;;4.75;;
22679;SDS011;11507;44.858;10.374;2023-03-16T04:45:11;6.50;;;3.90;;
22679;SDS011;11507;44.858;10.374;2023-03-16T04:47:38;8.27;;;4.50;;
22679;SDS011;11507;44.858;10.374;2023-03-16T04:50:05;8.35;;;4.20;;
22679;SDS011;11507;44.858;10.374;2023-03-16T04:52:31;8.50;;;4.70;;
22679;SDS011;11507;44.858;10.374;2023-03-16T04:55:00;7.15;;;4.22;;
22679;SDS011;11507;44.858;10.374;2023-03-16T04:57:28;6.47;;;3.72;;
22679;SDS011;11507;44.858;10.374;2023-03-16T04:59:55;6.50;;;4.13;;
22679;SDS011;11507;44.858;10.374;2023-03-16T05:02:35;7.40;;;4.00;;
22679;SDS011;11507;44.858;10.374;2023-03-16T05:05:03;5.95;;;3.75;;
22679;SDS011;11507;44.858;10.374;2023-03-16T05:07:30;7.50;;;4.25;;
22679;SDS011;11507;44.858;10.374;2023-03-16T05:09:57;7.88;;;4.15;;
22679;SDS011;11507;44.858;10.374;2023-03-16T05:14:53;15.68;;;4.85;;
22679;SDS011;11507;44.858;10.374;2023-03-16T05:17:47;11.20;;;4.90;;
22679;SDS011;11507;44.858;10.374;2023-03-16T05:20:14;7.97;;;4.68;;
22679;SDS011;11507;44.858;10.374;2023-03-16T05:22:45;9.32;;;4.47;;
22679;SDS011;11507;44.858;10.374;2023-03-16T05:25:16;10.52;;;5.05;;
22679;SDS011;11507;44.858;10.374;2023-03-16T05:27:49;9.85;;;4.68;;
22679;SDS011;11507;44.858;10.374;2023-03-16T05:30:23;10.18;;;4.78;;
22679;SDS011;11507;44.858;10.374;2023-03-16T05:32:53;9.00;;;4.90;;
22679;SDS011;11507;44.858;10.374;2023-03-16T05:35:24;8.15;;;4.65;;
22679;SDS011;11507;44.858;10.374;2023-03-16T05:37:52;7.68;;;4.40;;
22679;SDS011;11507;44.858;10.374;2023-03-16T05:40:19;9.15;;;4.63;;
22679;SDS011;11507;44.858;10.374;2023-03-16T05:45:23;7.28;;;4.35;;
22679;SDS011;11507;44.858;10.374;2023-03-16T05:48:07;13.27;;;4.65;;
22679;SDS011;11507;44.858;10.374;2023-03-16T05:50:37;7.93;;;4.20;;
22679;SDS011;11507;44.858;10.374;2023-03-16T05:55:29;9.10;;;4.63;;
22679;SDS011;11507;44.858;10.374;2023-03-16T05:57:59;8.88;;;5.18;;
22679;SDS011;11507;44.858;10.374;2023-03-16T06:00:25;10.20;;;5.45;;
22679;SDS011;11507;44.858;10.374;2023-03-16T06:03:03;11.65;;;6.35;;
22679;SDS011;11507;44.858;10.374;2023-03-16T06:05:34;9.23;;;5.65;;
22679;SDS011;11507;44.858;10.374;2023-03-16T06:08:01;11.60;;;5.65;;
22679;SDS011;11507;44.858;10.374;2023-03-16T06:10:27;9.50;;;5.72;;
22679;SDS011;11507;44.858;10.374;2023-03-16T06:12:54;9.23;;;5.45;;
22679;SDS011;11507;44.858;10.374;2023-03-16T06:17:50;8.48;;;4.90;;
22679;SDS011;11507;44.858;10.374;2023-03-16T06:22:44;7.78;;;5.20;;
22679;SDS011;11507;44.858;10.374;2023-03-16T06:25:11;9.77;;;4.90;;
22679;SDS011;11507;44.858;10.374;2023-03-16T06:27:44;10.18;;;5.45;;
22679;SDS011;11507;44.858;10.374;2023-03-16T06:30:16;12.13;;;5.10;;
22679;SDS011;11507;44.858;10.374;2023-03-16T06:32:42;8.90;;;4.90;;
22679;SDS011;11507;44.858;10.374;2023-03-16T06:35:12;8.50;;;4.50;;
22679;SDS011;11507;44.858;10.374;2023-03-16T06:38:00;8.43;;;4.95;;
22679;SDS011;11507;44.858;10.374;2023-03-16T06:40:41;7.72;;;4.85;;
22679;SDS011;11507;44.858;10.374;2023-03-16T06:48:01;9.93;;;4.07;;
22679;SDS011;11507;44.858;10.374;2023-03-16T06:50:27;7.18;;;3.30;;
22679;SDS011;11507;44.858;10.374;2023-03-16T06:52:53;6.55;;;3.00;;
22679;SDS011;11507;44.858;10.374;2023-03-16T06:57:47;5.75;;;3.05;;
22679;SDS011;11507;44.858;10.374;2023-03-16T07:00:17;8.63;;;2.58;;
22679;SDS011;11507;44.858;10.374;2023-03-16T07:02:43;6.80;;;3.10;;
22679;SDS011;11507;44.858;10.374;2023-03-16T07:05:11;5.60;;;2.85;;
22679;SDS011;11507;44.858;10.374;2023-03-16T07:07:41;5.32;;;3.20;;
22679;SDS011;11507;44.858;10.374;2023-03-16T07:10:11;7.05;;;3.75;;
22679;SDS011;11507;44.858;10.374;2023-03-16T07:12:39;5.00;;;2.88;;
22679;SDS011;11507;44.858;10.374;2023-03-16T07:15:06;5.13;;;2.53;;
22679;SDS011;11507;44.858;10.374;2023-03-16T07:17:34;5.50;;;2.55;;
22679;SDS011;11507;44.858;10.374;2023-03-16T07:20:02;5.90;;;2.72;;
22679;SDS011;11507;44.858;10.374;2023-03-16T07:22:30;4.50;;;2.30;;
22679;SDS011;11507;44.858;10.374;2023-03-16T07:24:58;8.70;;;2.72;;
22679;SDS011;11507;44.858;10.374;2023-03-16T07:27:26;5.38;;;2.80;;
22679;SDS011;11507;44.858;10.374;2023-03-16T07:29:54;7.07;;;2.30;;
22679;SDS011;11507;44.858;10.374;2023-03-16T07:32:20;5.60;;;2.50;;
22679;SDS011;11507;44.858;10.374;2023-03-16T07:34:48;4.88;;;2.05;;
22679;SDS011;11507;44.858;10.374;2023-03-16T07:37:15;5.97;;;2.45;;
22679;SDS011;11507;44.858;10.374;2023-03-16T07:39:49;5.80;;;2.40;;
22679;SDS011;11507;44.858;10.374;2023-03-16T07:42:19;4.55;;;2.25;;
22679;SDS011;11507;44.858;10.374;2023-03-16T07:45:08;5.07;;;2.38;;
22679;SDS011;11507;44.858;10.374;2023-03-16T07:47:35;4.55;;;2.47;;
22679;SDS011;11507;44.858;10.374;2023-03-16T07:50:21;6.60;;;2.40;;
22679;SDS011;11507;44.858;10.374;2023-03-16T07:52:48;5.50;;;2.50;;
22679;SDS011;11507;44.858;10.374;2023-03-16T07:55:14;10.93;;;2.58;;
22679;SDS011;11507;44.858;10.374;2023-03-16T07:57:41;5.25;;;2.28;;
22679;SDS011;11507;44.858;10.374;2023-03-16T08:00:13;4.93;;;2.55;;
22679;SDS011;11507;44.858;10.374;2023-03-16T08:02:40;4.95;;;2.40;;
22679;SDS011;11507;44.858;10.374;2023-03-16T08:05:08;5.82;;;2.70;;
22679;SDS011;11507;44.858;10.374;2023-03-16T08:07:38;6.50;;;3.33;;
22679;SDS011;11507;44.858;10.374;2023-03-16T08:10:14;5.53;;;2.97;;
22679;SDS011;11507;44.858;10.374;2023-03-16T08:12:47;7.28;;;3.53;;
22679;SDS011;11507;44.858;10.374;2023-03-16T08:15:14;6.68;;;3.25;;
22679;SDS011;11507;44.858;10.374;2023-03-16T08:20:10;7.40;;;3.30;;
22679;SDS011;11507;44.858;10.374;2023-03-16T08:22:38;8.27;;;3.95;;
22679;SDS011;11507;44.858;10.374;2023-03-16T08:25:05;8.73;;;3.72;;
22679;SDS011;11507;44.858;10.374;2023-03-16T08:27:38;11.80;;;4.40;;
22679;SDS011;11507;44.858;10.374;2023-03-16T08:30:06;11.00;;;6.72;;
22679;SDS011;11507;44.858;10.374;2023-03-16T08:32:38;12.00;;;6.78;;
22679;SDS011;11507;44.858;10.374;2023-03-16T08:35:07;12.85;;;6.20;;
22679;SDS011;11507;44.858;10.374;2023-03-16T08:37:38;16.77;;;8.48;;
22679;SDS011;11507;44.858;10.374;2023-03-16T08:40:06;19.83;;;9.95;;
22679;SDS011;11507;44.858;10.374;2023-03-16T08:42:40;10.73;;;5.47;;
22679;SDS011;11507;44.858;10.374;2023-03-16T08:45:09;11.48;;;5.53;;
22679;SDS011;11507;44.858;10.374;2023-03-16T08:47:36;30.95;;;12.75;;
22679;SDS011;11507;44.858;10.374;2023-03-16T08:50:06;42.65;;;17.85;;
22679;SDS011;11507;44.858;10.374;2023-03-16T08:52:37;29.95;;;12.70;;
22679;SDS011;11507;44.858;10.374;2023-03-16T08:55:05;18.02;;;9.65;;
22679;SDS011;11507;44.858;10.374;2023-03-16T08:57:32;9.18;;;4.90;;
22679;SDS011;11507;44.858;10.374;2023-03-16T09:00:01;29.35;;;11.55;;
22679;SDS011;11507;44.858;10.374;2023-03-16T09:02:36;17.45;;;7.35;;
22679;SDS011;11507;44.858;10.374;2023-03-16T09:05:05;8.80;;;4.40;;
22679;SDS011;11507;44.858;10.374;2023-03-16T09:07:36;6.80;;;4.13;;
22679;SDS011;11507;44.858;10.374;2023-03-16T09:10:04;9.10;;;4.80;;
22679;SDS011;11507;44.858;10.374;2023-03-16T09:12:34;8.57;;;4.35;;
22679;SDS011;11507;44.858;10.374;2023-03-16T09:15:01;6.32;;;4.15;;
22679;SDS011;11507;44.858;10.374;2023-03-16T09:17:28;8.52;;;4.55;;
22679;SDS011;11507;44.858;10.374;2023-03-16T09:19:54;8.13;;;4.35;;
22679;SDS011;11507;44.858;10.374;2023-03-16T09:22:23;6.50;;;3.70;;
22679;SDS011;11507;44.858;10.374;2023-03-16T09:24:53;6.70;;;3.97;;
22679;SDS011;11507;44.858;10.374;2023-03-16T09:27:20;9.25;;;4.07;;
22679;SDS011;11507;44.858;10.374;2023-03-16T09:29:47;14.13;;;6.90;;
22679;SDS011;11507;44.858;10.374;2023-03-16T09:32:13;6.45;;;4.43;;
22679;SDS011;11507;44.858;10.374;2023-03-16T09:34:40;5.93;;;4.20;;
22679;SDS011;11507;44.858;10.374;2023-03-16T09:37:06;6.60;;;3.97;;
22679;SDS011;11507;44.858;10.374;2023-03-16T09:39:32;6.15;;;3.63;;
22679;SDS011;11507;44.858;10.374;2023-03-16T09:42:02;8.52;;;3.88;;
22679;SDS011;11507;44.858;10.374;2023-03-16T09:47:36;8.75;;;5.30;;
22679;SDS011;11507;44.858;10.374;2023-03-16T09:50:06;7.82;;;4.68;;
22679;SDS011;11507;44.858;10.374;2023-03-16T09:55:25;8.50;;;6.00;;
22679;SDS011;11507;44.858;10.374;2023-03-16T09:57:59;8.90;;;6.30;;
22679;SDS011;11507;44.858;10.374;2023-03-16T10:05:54;10.48;;;7.13;;
22679;SDS011;11507;44.858;10.374;2023-03-16T10:19:43;9.43;;;6.70;;
22679;SDS011;11507;44.858;10.374;2023-03-16T10:21:46;11.13;;;6.72;;
22679;SDS011;11507;44.858;10.374;2023-03-16T10:27:03;8.23;;;6.03;;
22679;SDS011;11507;44.858;10.374;2023-03-16T10:29:34;8.07;;;4.90;;
22679;SDS011;11507;44.858;10.374;2023-03-16T10:32:06;9.00;;;5.07;;
22679;SDS011;11507;44.858;10.374;2023-03-16T10:34:37;8.68;;;6.10;;
22679;SDS011;11507;44.858;10.374;2023-03-16T10:37:04;8.45;;;4.95;;
22679;SDS011;11507;44.858;10.374;2023-03-16T10:39:36;6.75;;;3.90;;
22679;SDS011;11507;44.858;10.374;2023-03-16T10:42:13;5.20;;;3.58;;
22679;SDS011;11507;44.858;10.374;2023-03-16T10:44:41;6.45;;;4.50;;
22679;SDS011;11507;44.858;10.374;2023-03-16T10:49:43;7.45;;;3.70;;
22679;SDS011;11507;44.858;10.374;2023-03-16T10:54:48;7.53;;;4.05;;
22679;SDS011;11507;44.858;10.374;2023-03-16T11:00:19;4.75;;;3.15;;
22679;SDS011;11507;44.858;10.374;2023-03-16T11:02:48;6.30;;;3.50;;
22679;SDS011;11507;44.858;10.374;2023-03-16T11:07:48;4.75;;;2.80;;
22679;SDS011;11507;44.858;10.374;2023-03-16T11:10:34;4.25;;;2.47;;
22679;SDS011;11507;44.858;10.374;2023-03-16T11:13:10;4.45;;;2.53;;
22679;SDS011;11507;44.858;10.374;2023-03-16T11:15:50;4.28;;;2.40;;
22679;SDS011;11507;44.858;10.374;2023-03-16T11:18:27;4.20;;;2.35;;
22679;SDS011;11507;44.858;10.374;2023-03-16T11:21:10;5.35;;;2.70;;
22679;SDS011;11507;44.858;10.374;2023-03-16T11:23:45;3.85;;;2.00;;
22679;SDS011;11507;44.858;10.374;2023-03-16T11:26:26;3.15;;;1.90;;
22679;SDS011;11507;44.858;10.374;2023-03-16T11:29:07;4.47;;;2.05;;
22679;SDS011;11507;44.858;10.374;2023-03-16T11:34:30;3.03;;;1.30;;
22679;SDS011;11507;44.858;10.374;2023-03-16T11:40:23;4.15;;;1.48;;
22679;SDS011;11507;44.858;10.374;2023-03-16T12:02:35;3.00;;;1.42;;
22679;SDS011;11507;44.858;10.374;2023-03-16T12:07:52;4.28;;;1.45;;
22679;SDS011;11507;44.858;10.374;2023-03-16T12:10:50;2.85;;;1.35;;
22679;SDS011;11507;44.858;10.374;2023-03-16T12:19:27;2.90;;;1.05;;
22679;SDS011;11507;44.858;10.374;2023-03-16T12:22:26;2.97;;;1.27;;
22679;SDS011;11507;44.858;10.374;2023-03-16T12:24:58;4.03;;;1.48;;
22679;SDS011;11507;44.858;10.374;2023-03-16T12:27:27;2.90;;;1.52;;
22679;SDS011;11507;44.858;10.374;2023-03-16T12:38:13;3.38;;;1.77;;
22679;SDS011;11507;44.858;10.374;2023-03-16T12:49:05;2.63;;;1.58;;
22679;SDS011;11507;44.858;10.374;2023-03-16T12:54:00;2.97;;;1.70;;
22679;SDS011;11507;44.858;10.374;2023-03-16T12:56:31;3.83;;;1.90;;
22679;SDS011;11507;44.858;10.374;2023-03-16T12:59:00;4.22;;;1.75;;
22679;SDS011;11507;44.858;10.374;2023-03-16T13:01:37;3.20;;;1.80;;
22679;SDS011;11507;44.858;10.374;2023-03-16T13:04:10;3.75;;;1.73;;
22679;SDS011;11507;44.858;10.374;2023-03-16T13:06:43;4.65;;;2.03;;
22679;SDS011;11507;44.858;10.374;2023-03-16T13:09:16;3.30;;;1.80;;
22679;SDS011;11507;44.858;10.374;2023-03-16T13:11:52;4.70;;;2.08;;
22679;SDS011;11507;44.858;10.374;2023-03-16T13:14:31;3.75;;;1.88;;
22679;SDS011;11507;44.858;10.374;2023-03-16T13:17:21;3.42;;;2.10;;
22679;SDS011;11507;44.858;10.374;2023-03-16T13:22:28;3.95;;;2.08;;
22679;SDS011;11507;44.858;10.374;2023-03-16T13:27:46;3.50;;;2.00;;
22679;SDS011;11507;44.858;10.374;2023-03-16T13:30:19;3.75;;;1.92;;
22679;SDS011;11507;44.858;10.374;2023-03-16T13:32:47;4.60;;;2.00;;
22679;SDS011;11507;44.858;10.374;2023-03-16T13:35:18;4.07;;;2.10;;
22679;SDS011;11507;44.858;10.374;2023-03-16T13:37:45;3.50;;;2.00;;
22679;SDS011;11507;44.858;10.374;2023-03-16T13:40:16;3.92;;;2.28;;
22679;SDS011;11507;44.858;10.374;2023-03-16T13:42:47;3.33;;;2.10;;
22679;SDS011;11507;44.858;10.374;2023-03-16T13:45:18;3.90;;;2.22;;
22679;SDS011;11507;44.858;10.374;2023-03-16T13:47:47;3.28;;;1.90;;
22679;SDS011;11507;44.858;10.374;2023-03-16T13:50:14;4.00;;;1.80;;
22679;SDS011;11507;44.858;10.374;2023-03-16T13:52:49;3.22;;;2.00;;
22679;SDS011;11507;44.858;10.374;2023-03-16T13:55:32;3.65;;;2.10;;
22679;SDS011;11507;44.858;10.374;2023-03-16T13:58:01;4.82;;;1.98;;
22679;SDS011;11507;44.858;10.374;2023-03-16T14:00:37;3.95;;;1.80;;
22679;SDS011;11507;44.858;10.374;2023-03-16T14:03:17;3.28;;;1.90;;
22679;SDS011;11507;44.858;10.374;2023-03-16T14:05:46;3.95;;;1.98;;
22679;SDS011;11507;44.858;10.374;2023-03-16T14:08:19;2.92;;;1.83;;
22679;SDS011;11507;44.858;10.374;2023-03-16T14:10:52;4.60;;;2.10;;
22679;SDS011;11507;44.858;10.374;2023-03-16T14:19:16;4.57;;;1.70;;
22679;SDS011;11507;44.858;10.374;2023-03-16T14:21:43;5.82;;;1.95;;
22679;SDS011;11507;44.858;10.374;2023-03-16T14:24:29;5.68;;;1.88;;
22679;SDS011;11507;44.858;10.374;2023-03-16T14:27:07;3.97;;;1.70;;
22679;SDS011;11507;44.858;10.374;2023-03-16T14:29:49;3.28;;;1.90;;
22679;SDS011;11507;44.858;10.374;2023-03-16T14:32:23;3.58;;;1.95;;
22679;SDS011;11507;44.858;10.374;2023-03-16T14:35:08;4.60;;;1.88;;
22679;SDS011;11507;44.858;10.374;2023-03-16T14:37:40;3.53;;;1.90;;
22679;SDS011;11507;44.858;10.374;2023-03-16T14:40:20;5.13;;;2.00;;
22679;SDS011;11507;44.858;10.374;2023-03-16T14:42:52;4.72;;;1.77;;
22679;SDS011;11507;44.858;10.374;2023-03-16T14:45:31;4.72;;;2.10;;
22679;SDS011;11507;44.858;10.374;2023-03-16T14:48:05;3.67;;;2.00;;
22679;SDS011;11507;44.858;10.374;2023-03-16T14:50:36;3.03;;;1.85;;
22679;SDS011;11507;44.858;10.374;2023-03-16T14:53:03;4.13;;;2.00;;
22679;SDS011;11507;44.858;10.374;2023-03-16T14:55:29;4.53;;;2.10;;
22679;SDS011;11507;44.858;10.374;2023-03-16T14:58:02;4.00;;;2.00;;
22679;SDS011;11507;44.858;10.374;2023-03-16T15:00:30;3.80;;;1.90;;
22679;SDS011;11507;44.858;10.374;2023-03-16T15:03:00;3.97;;;2.00;;
22679;SDS011;11507;44.858;10.374;2023-03-16T15:05:36;4.07;;;1.90;;
22679;SDS011;11507;44.858;10.374;2023-03-16T15:08:15;3.25;;;1.95;;
22679;SDS011;11507;44.858;10.374;2023-03-16T15:10:59;3.55;;;2.15;;
22679;SDS011;11507;44.858;10.374;2023-03-16T15:13:29;4.00;;;2.22;;
22679;SDS011;11507;44.858;10.374;2023-03-16T15:16:21;4.28;;;2.40;;
22679;SDS011;11507;44.858;10.374;2023-03-16T15:18:47;8.43;;;2.42;;
22679;SDS011;11507;44.858;10.374;2023-03-16T15:21:14;4.47;;;2.50;;
22679;SDS011;11507;44.858;10.374;2023-03-16T15:23:44;3.85;;;2.40;;
22679;SDS011;11507;44.858;10.374;2023-03-16T15:26:12;3.22;;;2.05;;
22679;SDS011;11507;44.858;10.374;2023-03-16T15:28:39;7.15;;;2.58;;
22679;SDS011;11507;44.858;10.374;2023-03-16T15:31:05;4.30;;;2.30;;
22679;SDS011;11507;44.858;10.374;2023-03-16T15:33:31;5.38;;;2.33;;
22679;SDS011;11507;44.858;10.374;2023-03-16T15:35:58;4.60;;;2.30;;
22679;SDS011;11507;44.858;10.374;2023-03-16T15:38:31;4.15;;;2.08;;
22679;SDS011;11507;44.858;10.374;2023-03-16T15:41:00;5.00;;;2.00;;
22679;SDS011;11507;44.858;10.374;2023-03-16T15:43:28;3.92;;;1.90;;
22679;SDS011;11507;44.858;10.374;2023-03-16T15:45:55;4.60;;;2.30;;
22679;SDS011;11507;44.858;10.374;2023-03-16T15:48:23;4.35;;;2.30;;
22679;SDS011;11507;44.858;10.374;2023-03-16T15:50:58;4.22;;;2.00;;
22679;SDS011;11507;44.858;10.374;2023-03-16T15:53:48;5.82;;;2.40;;
22679;SDS011;11507;44.858;10.374;2023-03-16T15:56:18;6.35;;;2.30;;
22679;SDS011;11507;44.858;10.374;2023-03-16T15:58:49;6.07;;;2.30;;
22679;SDS011;11507;44.858;10.374;2023-03-16T16:01:25;3.20;;;1.90;;
22679;SDS011;11507;44.858;10.374;2023-03-16T16:03:59;4.18;;;2.33;;
22679;SDS011;11507;44.858;10.374;2023-03-16T16:06:25;4.78;;;2.10;;
22679;SDS011;11507;44.858;10.374;2023-03-16T16:08:53;5.85;;;2.10;;
22679;SDS011;11507;44.858;10.374;2023-03-16T16:11:23;9.98;;;2.25;;
22679;SDS011;11507;44.858;10.374;2023-03-16T16:13:50;4.55;;;1.90;;
22679;SDS011;11507;44.858;10.374;2023-03-16T16:16:18;5.57;;;2.10;;
22679;SDS011;11507;44.858;10.374;2023-03-16T16:18:45;6.30;;;2.47;;
22679;SDS011;11507;44.858;10.374;2023-03-16T16:21:22;3.45;;;2.10;;
22679;SDS011;11507;44.858;10.374;2023-03-16T16:23:51;5.63;;;2.45;;
22679;SDS011;11507;44.858;10.374;2023-03-16T16:28:54;4.85;;;2.30;;
22679;SDS011;11507;44.858;10.374;2023-03-16T16:31:24;3.78;;;2.00;;
22679;SDS011;11507;44.858;10.374;2023-03-16T16:33:53;5.25;;;2.30;;
22679;SDS011;11507;44.858;10.374;2023-03-16T16:36:22;8.00;;;2.55;;
22679;SDS011;11507;44.858;10.374;2023-03-16T16:38:49;8.55;;;2.42;;
22679;SDS011;11507;44.858;10.374;2023-03-16T16:41:21;5.82;;;2.47;;
22679;SDS011;11507;44.858;10.374;2023-03-16T16:43:52;9.10;;;2.50;;
22679;SDS011;11507;44.858;10.374;2023-03-16T16:46:21;6.53;;;2.42;;
22679;SDS011;11507;44.858;10.374;2023-03-16T16:48:50;5.88;;;2.40;;
22679;SDS011;11507;44.858;10.374;2023-03-16T16:51:24;5.25;;;2.80;;
22679;SDS011;11507;44.858;10.374;2023-03-16T16:54:12;5.90;;;2.75;;
22679;SDS011;11507;44.858;10.374;2023-03-16T16:56:43;4.70;;;2.50;;
22679;SDS011;11507;44.858;10.374;2023-03-16T16:59:18;5.80;;;2.88;;
22679;SDS011;11507;44.858;10.374;2023-03-16T17:01:46;5.07;;;2.80;;
22679;SDS011;11507;44.858;10.374;2023-03-16T17:04:58;8.23;;;2.80;;
22679;SDS011;11507;44.858;10.374;2023-03-16T17:07:25;4.80;;;2.70;;
22679;SDS011;11507;44.858;10.374;2023-03-16T17:09:52;5.90;;;2.60;;
22679;SDS011;11507;44.858;10.374;2023-03-16T17:12:20;8.07;;;2.90;;
22679;SDS011;11507;44.858;10.374;2023-03-16T17:14:50;7.35;;;3.13;;
22679;SDS011;11507;44.858;10.374;2023-03-16T17:17:16;7.68;;;2.72;;
22679;SDS011;11507;44.858;10.374;2023-03-16T17:19:43;8.20;;;2.70;;
22679;SDS011;11507;44.858;10.374;2023-03-16T17:22:18;8.00;;;2.90;;
22679;SDS011;11507;44.858;10.374;2023-03-16T17:24:47;7.03;;;2.47;;
22679;SDS011;11507;44.858;10.374;2023-03-16T17:27:13;7.82;;;3.25;;
22679;SDS011;11507;44.858;10.374;2023-03-16T17:29:44;6.30;;;3.00;;
22679;SDS011;11507;44.858;10.374;2023-03-16T17:32:17;6.78;;;2.80;;
22679;SDS011;11507;44.858;10.374;2023-03-16T17:34:48;10.32;;;3.10;;